Ana Sayfa
METAR-TAF:

METAR-TAF

Havaalanları :

Konya Havalimanı

Konya, Türkiye

Enlem: 37-58N, Boylam: 032-33E, yükseklik: 1032 m

Güncel hava durumu gözlemi

Rapor saat 16:50 UTC de 1 saat ve 5 dakika önce yapıldı.
Rüzgar kuzeydan 9 kt
Sıcaklık 28°C
Nem 22%
Basınç 1011 hPa
Görüş mesafesi 10 km veya daha fazla
4000 ft yükseklikte az bulutlu

METAR: LTAN 181650Z 01009KT 9999 FEW040 28/04 Q1011 NOSIG

Saat: 20:55 (17:55 UTC)

Tahmin

Rapor saat 16:40 UTC de 1 saat ve 15 dakika önce yapıldı.
Ayın 18'si saat 18 UTC'den ayın 19'si saat 03 UTC'ye kadar geçerli Tahmin
Rüzgar kuzeydan 12 kt
Görüş mesafesi 10 km veya daha fazla
4000 ft yükseklikte az bulutlu
Dönüşüyor
ayın 18'si saat 18 UTC'den ayın 18'si saat 20 UTC'ye kadar
Görüş mesafesi 10 km veya daha fazla
1500 m altında bulut yok ve kümülonimbus yok

TAF: LTAN 181640Z 1818/1903 36012KT 9999 FEW040 BECMG 1818/1820 CAVOK

4.000'den fazla havaalanı için hava durumu gözlemleri ve tahminleri (METAR ve TAF raporları).

Kullanılabilir istasyonlar harita üzerinde sarı ve kırmızı noktalarla gösterilir.

İstasyonun adını görmek için fareyi noktanın üzerinde gezdirin.

Sonrasında hava gözlem ve tahminlerini görmek için tıklayın.

Haritayı değiştirmek için: yaklaştırmak için siyah artı işaretli yeşil düğmeye ve uzaklaştırmak için de eksi işaretli düğmeye hızla tıklayın; bitişik haritalar için yeşil okları kullanın.


METAR-TAF: